KCLS/CLS METAR and TAF weather

Enter ICAO airport designator
Station Type Date Time Source
KCLS METAR 2022/05/23 14:15 UTC NOAA

KCLS 231415Z AUTO VRB06KT 10SM OVC060 11/09 A3022 RMK AO2


Station Type Date Time Source
KCLS Decoded METAR 2022/05/23 14:15 UTC NOAA

Station name not available
May 23, 2022 - 10:15 AM EDT / 2022.05.23 1415 UTC
Wind: Variable at 7 MPH (6 KT):0
Visibility: 10 mile(s):0
Sky conditions: overcast
Temperature: 51 F (11 C)
Dew Point: 48 F (9 C)
Relative Humidity: 87%
Pressure (altimeter): 30.22 in. Hg (1023 hPa)
ob: KCLS 231415Z AUTO VRB06KT 10SM OVC060 11/09 A3022 RMK AO2
cycle: 14

Station Type Date Time Source
KCLS TAF UTC NOAA

Error!

Example: see airport list